sensor_id;sensor_type;location;lat;lon;timestamp;temperature;humidity
22153;DHT22;11242;50.536;12.688;2022-11-25T00:00:27;2.20;99.90
22153;DHT22;11242;50.536;12.688;2022-11-25T00:02:53;2.20;99.90
22153;DHT22;11242;50.536;12.688;2022-11-25T00:05:18;2.20;99.90
22153;DHT22;11242;50.536;12.688;2022-11-25T00:07:45;2.20;99.90
22153;DHT22;11242;50.536;12.688;2022-11-25T00:10:11;2.30;99.90
22153;DHT22;11242;50.536;12.688;2022-11-25T00:12:36;2.30;99.90
22153;DHT22;11242;50.536;12.688;2022-11-25T00:15:02;2.40;99.90
22153;DHT22;11242;50.536;12.688;2022-11-25T00:17:28;2.30;99.90
22153;DHT22;11242;50.536;12.688;2022-11-25T00:19:53;2.20;99.90
22153;DHT22;11242;50.536;12.688;2022-11-25T00:22:19;2.20;99.90
22153;DHT22;11242;50.536;12.688;2022-11-25T00:24:45;2.10;99.90
22153;DHT22;11242;50.536;12.688;2022-11-25T00:27:10;2.20;99.90
22153;DHT22;11242;50.536;12.688;2022-11-25T00:29:37;2.20;99.90
22153;DHT22;11242;50.536;12.688;2022-11-25T00:32:02;2.20;99.90
22153;DHT22;11242;50.536;12.688;2022-11-25T00:34:31;2.30;99.90
22153;DHT22;11242;50.536;12.688;2022-11-25T00:36:57;2.20;99.90
22153;DHT22;11242;50.536;12.688;2022-11-25T00:39:22;2.10;99.90
22153;DHT22;11242;50.536;12.688;2022-11-25T00:41:50;2.00;99.90
22153;DHT22;11242;50.536;12.688;2022-11-25T00:44:34;1.90;99.90
22153;DHT22;11242;50.536;12.688;2022-11-25T00:47:03;1.80;99.90
22153;DHT22;11242;50.536;12.688;2022-11-25T00:49:30;1.80;99.90
22153;DHT22;11242;50.536;12.688;2022-11-25T00:51:55;1.70;99.90
22153;DHT22;11242;50.536;12.688;2022-11-25T00:54:21;1.70;99.90
22153;DHT22;11242;50.536;12.688;2022-11-25T00:56:48;1.70;99.90
22153;DHT22;11242;50.536;12.688;2022-11-25T00:59:14;1.60;99.90
22153;DHT22;11242;50.536;12.688;2022-11-25T01:01:39;1.50;99.90
22153;DHT22;11242;50.536;12.688;2022-11-25T01:04:05;1.60;99.90
22153;DHT22;11242;50.536;12.688;2022-11-25T01:06:32;1.60;99.90
22153;DHT22;11242;50.536;12.688;2022-11-25T01:08:58;1.60;99.90
22153;DHT22;11242;50.536;12.688;2022-11-25T01:11:24;1.50;99.90
22153;DHT22;11242;50.536;12.688;2022-11-25T01:13:50;1.50;99.90
22153;DHT22;11242;50.536;12.688;2022-11-25T01:16:19;1.40;99.90
22153;DHT22;11242;50.536;12.688;2022-11-25T01:18:46;1.40;99.90
22153;DHT22;11242;50.536;12.688;2022-11-25T01:21:17;1.40;99.90
22153;DHT22;11242;50.536;12.688;2022-11-25T01:23:45;1.30;99.90
22153;DHT22;11242;50.536;12.688;2022-11-25T01:26:15;1.40;99.90
22153;DHT22;11242;50.536;12.688;2022-11-25T01:28:40;1.50;99.90
22153;DHT22;11242;50.536;12.688;2022-11-25T01:31:12;1.50;99.90
22153;DHT22;11242;50.536;12.688;2022-11-25T01:33:39;1.30;99.90
22153;DHT22;11242;50.536;12.688;2022-11-25T01:36:11;1.20;99.90
22153;DHT22;11242;50.536;12.688;2022-11-25T01:38:37;1.20;99.90
22153;DHT22;11242;50.536;12.688;2022-11-25T01:41:05;1.10;99.90
22153;DHT22;11242;50.536;12.688;2022-11-25T01:43:31;1.00;99.90
22153;DHT22;11242;50.536;12.688;2022-11-25T01:46:36;0.90;99.90
22153;DHT22;11242;50.536;12.688;2022-11-25T01:49:02;0.70;99.90
22153;DHT22;11242;50.536;12.688;2022-11-25T01:51:41;0.80;99.90
22153;DHT22;11242;50.536;12.688;2022-11-25T01:54:10;0.80;99.90
22153;DHT22;11242;50.536;12.688;2022-11-25T01:56:43;0.80;99.90
22153;DHT22;11242;50.536;12.688;2022-11-25T01:59:12;1.00;99.90
22153;DHT22;11242;50.536;12.688;2022-11-25T02:01:38;1.00;99.90
22153;DHT22;11242;50.536;12.688;2022-11-25T02:04:04;1.00;99.90
22153;DHT22;11242;50.536;12.688;2022-11-25T02:06:35;1.00;99.90
22153;DHT22;11242;50.536;12.688;2022-11-25T02:09:06;0.90;99.90
22153;DHT22;11242;50.536;12.688;2022-11-25T02:11:35;0.80;99.90
22153;DHT22;11242;50.536;12.688;2022-11-25T02:14:04;0.80;99.90
22153;DHT22;11242;50.536;12.688;2022-11-25T02:16:31;0.90;99.90
22153;DHT22;11242;50.536;12.688;2022-11-25T02:18:57;1.10;99.90
22153;DHT22;11242;50.536;12.688;2022-11-25T02:21:39;1.20;99.90
22153;DHT22;11242;50.536;12.688;2022-11-25T02:24:17;1.30;99.90
22153;DHT22;11242;50.536;12.688;2022-11-25T02:26:45;1.20;99.90
22153;DHT22;11242;50.536;12.688;2022-11-25T02:29:11;1.10;99.90
22153;DHT22;11242;50.536;12.688;2022-11-25T02:31:37;1.10;99.90
22153;DHT22;11242;50.536;12.688;2022-11-25T02:34:03;1.00;99.90
22153;DHT22;11242;50.536;12.688;2022-11-25T02:36:33;1.00;99.90
22153;DHT22;11242;50.536;12.688;2022-11-25T02:38:59;1.00;99.90
22153;DHT22;11242;50.536;12.688;2022-11-25T02:41:35;1.00;99.90
22153;DHT22;11242;50.536;12.688;2022-11-25T02:44:04;0.90;99.90
22153;DHT22;11242;50.536;12.688;2022-11-25T02:46:30;0.80;99.90
22153;DHT22;11242;50.536;12.688;2022-11-25T02:48:57;0.80;99.90
22153;DHT22;11242;50.536;12.688;2022-11-25T02:51:26;0.70;99.90
22153;DHT22;11242;50.536;12.688;2022-11-25T02:53:52;0.80;99.90
22153;DHT22;11242;50.536;12.688;2022-11-25T02:56:20;0.70;99.90
22153;DHT22;11242;50.536;12.688;2022-11-25T02:58:46;0.70;99.90
22153;DHT22;11242;50.536;12.688;2022-11-25T03:01:12;0.60;99.90
22153;DHT22;11242;50.536;12.688;2022-11-25T03:03:37;0.60;99.90
22153;DHT22;11242;50.536;12.688;2022-11-25T03:06:05;0.50;99.90
22153;DHT22;11242;50.536;12.688;2022-11-25T03:08:31;0.40;99.90
22153;DHT22;11242;50.536;12.688;2022-11-25T03:10:57;0.40;99.90
22153;DHT22;11242;50.536;12.688;2022-11-25T03:13:23;0.40;99.90
22153;DHT22;11242;50.536;12.688;2022-11-25T03:15:49;0.20;99.90
22153;DHT22;11242;50.536;12.688;2022-11-25T03:18:15;0.20;99.90
22153;DHT22;11242;50.536;12.688;2022-11-25T03:20:41;0.10;99.90
22153;DHT22;11242;50.536;12.688;2022-11-25T03:23:06;0.10;99.90
22153;DHT22;11242;50.536;12.688;2022-11-25T03:25:34;0.20;99.90
22153;DHT22;11242;50.536;12.688;2022-11-25T03:28:00;0.20;99.90
22153;DHT22;11242;50.536;12.688;2022-11-25T03:30:27;0.10;99.90
22153;DHT22;11242;50.536;12.688;2022-11-25T03:32:56;0.00;99.90
22153;DHT22;11242;50.536;12.688;2022-11-25T03:35:24;0.00;99.90
22153;DHT22;11242;50.536;12.688;2022-11-25T03:37:50;0.00;99.90
22153;DHT22;11242;50.536;12.688;2022-11-25T03:40:16;0.00;99.90
22153;DHT22;11242;50.536;12.688;2022-11-25T03:42:43;0.10;99.90
22153;DHT22;11242;50.536;12.688;2022-11-25T03:45:10;0.10;99.90
22153;DHT22;11242;50.536;12.688;2022-11-25T03:47:39;0.00;99.90
22153;DHT22;11242;50.536;12.688;2022-11-25T03:50:06;0.00;99.90
22153;DHT22;11242;50.536;12.688;2022-11-25T03:52:32;-0.10;99.90
22153;DHT22;11242;50.536;12.688;2022-11-25T03:54:57;-0.20;99.90
22153;DHT22;11242;50.536;12.688;2022-11-25T03:57:27;-0.20;99.90
22153;DHT22;11242;50.536;12.688;2022-11-25T03:59:53;-0.20;99.90
22153;DHT22;11242;50.536;12.688;2022-11-25T04:02:19;-0.20;99.90
22153;DHT22;11242;50.536;12.688;2022-11-25T04:04:47;-0.30;99.90
22153;DHT22;11242;50.536;12.688;2022-11-25T04:07:13;-0.40;99.90
22153;DHT22;11242;50.536;12.688;2022-11-25T04:09:39;-0.40;99.90
22153;DHT22;11242;50.536;12.688;2022-11-25T04:12:06;-0.30;99.90
22153;DHT22;11242;50.536;12.688;2022-11-25T04:14:53;-0.20;99.90
22153;DHT22;11242;50.536;12.688;2022-11-25T04:17:19;-0.20;99.90
22153;DHT22;11242;50.536;12.688;2022-11-25T04:19:45;-0.20;99.90
22153;DHT22;11242;50.536;12.688;2022-11-25T04:22:11;-0.20;99.90
22153;DHT22;11242;50.536;12.688;2022-11-25T04:24:41;-0.20;99.90
22153;DHT22;11242;50.536;12.688;2022-11-25T04:27:07;-0.20;99.90
22153;DHT22;11242;50.536;12.688;2022-11-25T04:29:34;-0.30;99.90
22153;DHT22;11242;50.536;12.688;2022-11-25T04:32:02;-0.20;99.90
22153;DHT22;11242;50.536;12.688;2022-11-25T04:34:28;0.00;99.90
22153;DHT22;11242;50.536;12.688;2022-11-25T04:36:53;0.00;99.90
22153;DHT22;11242;50.536;12.688;2022-11-25T04:39:19;0.00;99.90
22153;DHT22;11242;50.536;12.688;2022-11-25T04:41:45;0.00;99.90
22153;DHT22;11242;50.536;12.688;2022-11-25T04:44:12;0.10;99.90
22153;DHT22;11242;50.536;12.688;2022-11-25T04:46:40;0.10;99.90
22153;DHT22;11242;50.536;12.688;2022-11-25T04:49:06;0.10;99.90
22153;DHT22;11242;50.536;12.688;2022-11-25T04:51:32;0.00;99.90
22153;DHT22;11242;50.536;12.688;2022-11-25T04:54:02;0.00;99.90
22153;DHT22;11242;50.536;12.688;2022-11-25T04:56:29;0.00;99.90
22153;DHT22;11242;50.536;12.688;2022-11-25T04:58:55;0.00;99.90
22153;DHT22;11242;50.536;12.688;2022-11-25T05:01:43;0.00;99.90
22153;DHT22;11242;50.536;12.688;2022-11-25T05:04:20;-0.10;99.90
22153;DHT22;11242;50.536;12.688;2022-11-25T05:06:47;-0.20;99.90
22153;DHT22;11242;50.536;12.688;2022-11-25T05:09:16;-0.20;99.90
22153;DHT22;11242;50.536;12.688;2022-11-25T05:11:43;-0.20;99.90
22153;DHT22;11242;50.536;12.688;2022-11-25T05:14:09;-0.20;99.90
22153;DHT22;11242;50.536;12.688;2022-11-25T05:16:35;-0.20;99.90
22153;DHT22;11242;50.536;12.688;2022-11-25T05:19:02;-0.20;99.90
22153;DHT22;11242;50.536;12.688;2022-11-25T05:21:27;-0.20;99.90
22153;DHT22;11242;50.536;12.688;2022-11-25T05:23:53;-0.20;99.90
22153;DHT22;11242;50.536;12.688;2022-11-25T05:26:20;-0.20;99.90
22153;DHT22;11242;50.536;12.688;2022-11-25T05:28:49;-0.10;99.90
22153;DHT22;11242;50.536;12.688;2022-11-25T05:31:14;0.00;99.90
22153;DHT22;11242;50.536;12.688;2022-11-25T05:33:41;0.00;99.90
22153;DHT22;11242;50.536;12.688;2022-11-25T05:36:09;0.00;99.90
22153;DHT22;11242;50.536;12.688;2022-11-25T05:38:44;0.00;99.90
22153;DHT22;11242;50.536;12.688;2022-11-25T05:41:12;0.00;99.90
22153;DHT22;11242;50.536;12.688;2022-11-25T05:43:39;0.10;99.90
22153;DHT22;11242;50.536;12.688;2022-11-25T05:46:06;0.20;99.90
22153;DHT22;11242;50.536;12.688;2022-11-25T05:48:34;0.20;99.90
22153;DHT22;11242;50.536;12.688;2022-11-25T05:51:01;0.20;99.90
22153;DHT22;11242;50.536;12.688;2022-11-25T05:53:29;0.10;99.90
22153;DHT22;11242;50.536;12.688;2022-11-25T05:55:58;0.10;99.90
22153;DHT22;11242;50.536;12.688;2022-11-25T05:58:46;0.20;99.90
22153;DHT22;11242;50.536;12.688;2022-11-25T06:01:14;0.20;99.90
22153;DHT22;11242;50.536;12.688;2022-11-25T06:03:40;0.40;99.90
22153;DHT22;11242;50.536;12.688;2022-11-25T06:06:08;0.30;99.90
22153;DHT22;11242;50.536;12.688;2022-11-25T06:08:36;0.30;99.90
22153;DHT22;11242;50.536;12.688;2022-11-25T06:11:13;0.30;99.90
22153;DHT22;11242;50.536;12.688;2022-11-25T06:13:39;0.30;99.90
22153;DHT22;11242;50.536;12.688;2022-11-25T06:16:13;0.10;99.90
22153;DHT22;11242;50.536;12.688;2022-11-25T06:18:39;0.10;99.90
22153;DHT22;11242;50.536;12.688;2022-11-25T06:21:08;-0.10;99.90
22153;DHT22;11242;50.536;12.688;2022-11-25T06:23:35;-0.30;99.90
22153;DHT22;11242;50.536;12.688;2022-11-25T06:26:26;-0.30;99.90
22153;DHT22;11242;50.536;12.688;2022-11-25T06:28:53;-0.40;99.90
22153;DHT22;11242;50.536;12.688;2022-11-25T06:31:21;0.10;99.90
22153;DHT22;11242;50.536;12.688;2022-11-25T06:33:57;0.50;99.90
22153;DHT22;11242;50.536;12.688;2022-11-25T06:36:22;0.70;99.90
22153;DHT22;11242;50.536;12.688;2022-11-25T06:38:50;0.60;99.90
22153;DHT22;11242;50.536;12.688;2022-11-25T06:41:17;0.80;99.90
22153;DHT22;11242;50.536;12.688;2022-11-25T06:43:43;0.80;99.90
22153;DHT22;11242;50.536;12.688;2022-11-25T06:46:13;0.60;99.90
22153;DHT22;11242;50.536;12.688;2022-11-25T06:48:39;0.70;99.90
22153;DHT22;11242;50.536;12.688;2022-11-25T06:51:11;0.60;99.90
22153;DHT22;11242;50.536;12.688;2022-11-25T06:53:37;0.30;99.90
22153;DHT22;11242;50.536;12.688;2022-11-25T06:56:26;0.30;99.90
22153;DHT22;11242;50.536;12.688;2022-11-25T06:58:53;0.30;99.90
22153;DHT22;11242;50.536;12.688;2022-11-25T07:01:25;0.50;99.90
22153;DHT22;11242;50.536;12.688;2022-11-25T07:03:53;0.50;99.90
22153;DHT22;11242;50.536;12.688;2022-11-25T07:06:19;0.50;99.90
22153;DHT22;11242;50.536;12.688;2022-11-25T07:08:45;0.50;99.90
22153;DHT22;11242;50.536;12.688;2022-11-25T07:11:26;0.50;99.90
22153;DHT22;11242;50.536;12.688;2022-11-25T07:14:03;0.50;99.90
22153;DHT22;11242;50.536;12.688;2022-11-25T07:16:30;0.50;99.90
22153;DHT22;11242;50.536;12.688;2022-11-25T07:18:58;0.50;99.90
22153;DHT22;11242;50.536;12.688;2022-11-25T07:21:24;0.50;99.90
22153;DHT22;11242;50.536;12.688;2022-11-25T07:23:51;0.50;99.90
22153;DHT22;11242;50.536;12.688;2022-11-25T07:26:22;0.60;99.90
22153;DHT22;11242;50.536;12.688;2022-11-25T07:28:49;0.60;99.90
22153;DHT22;11242;50.536;12.688;2022-11-25T07:31:21;0.60;99.90
22153;DHT22;11242;50.536;12.688;2022-11-25T07:33:49;0.60;99.90
22153;DHT22;11242;50.536;12.688;2022-11-25T07:36:15;0.60;99.90
22153;DHT22;11242;50.536;12.688;2022-11-25T07:38:41;0.60;99.90
22153;DHT22;11242;50.536;12.688;2022-11-25T07:41:12;0.70;99.90
22153;DHT22;11242;50.536;12.688;2022-11-25T07:43:39;0.90;99.90
22153;DHT22;11242;50.536;12.688;2022-11-25T07:48:51;2.30;99.90
22153;DHT22;11242;50.536;12.688;2022-11-25T07:51:18;2.70;99.90
22153;DHT22;11242;50.536;12.688;2022-11-25T07:53:45;3.20;99.90
22153;DHT22;11242;50.536;12.688;2022-11-25T07:56:12;4.30;99.90
22153;DHT22;11242;50.536;12.688;2022-11-25T07:58:38;5.20;99.90
22153;DHT22;11242;50.536;12.688;2022-11-25T08:01:05;5.40;99.90
22153;DHT22;11242;50.536;12.688;2022-11-25T08:03:32;5.50;99.90
22153;DHT22;11242;50.536;12.688;2022-11-25T08:06:05;5.50;99.90
22153;DHT22;11242;50.536;12.688;2022-11-25T08:08:32;5.40;99.90
22153;DHT22;11242;50.536;12.688;2022-11-25T08:10:58;5.80;99.90
22153;DHT22;11242;50.536;12.688;2022-11-25T08:13:24;5.30;99.90
22153;DHT22;11242;50.536;12.688;2022-11-25T08:15:50;4.80;99.90
22153;DHT22;11242;50.536;12.688;2022-11-25T08:18:16;3.60;99.90
22153;DHT22;11242;50.536;12.688;2022-11-25T08:20:42;3.70;99.90
22153;DHT22;11242;50.536;12.688;2022-11-25T08:23:07;5.40;99.90
22153;DHT22;11242;50.536;12.688;2022-11-25T08:25:39;6.40;99.90
22153;DHT22;11242;50.536;12.688;2022-11-25T08:28:04;6.50;99.90
22153;DHT22;11242;50.536;12.688;2022-11-25T08:30:30;6.20;99.90
22153;DHT22;11242;50.536;12.688;2022-11-25T08:32:56;6.20;99.90
22153;DHT22;11242;50.536;12.688;2022-11-25T08:35:23;6.50;99.90
22153;DHT22;11242;50.536;12.688;2022-11-25T08:37:49;6.70;99.90
22153;DHT22;11242;50.536;12.688;2022-11-25T08:40:14;7.20;99.90
22153;DHT22;11242;50.536;12.688;2022-11-25T08:42:40;7.10;99.90
22153;DHT22;11242;50.536;12.688;2022-11-25T08:45:07;6.50;99.90
22153;DHT22;11242;50.536;12.688;2022-11-25T08:47:33;5.10;99.90
22153;DHT22;11242;50.536;12.688;2022-11-25T08:49:59;4.10;99.90
22153;DHT22;11242;50.536;12.688;2022-11-25T08:52:25;3.50;99.90
22153;DHT22;11242;50.536;12.688;2022-11-25T08:54:53;3.20;99.90
22153;DHT22;11242;50.536;12.688;2022-11-25T08:57:19;3.00;99.90
22153;DHT22;11242;50.536;12.688;2022-11-25T08:59:44;3.10;99.90
22153;DHT22;11242;50.536;12.688;2022-11-25T09:02:13;3.30;99.90
22153;DHT22;11242;50.536;12.688;2022-11-25T09:04:39;3.50;99.90
22153;DHT22;11242;50.536;12.688;2022-11-25T09:07:05;3.90;99.90
22153;DHT22;11242;50.536;12.688;2022-11-25T09:09:30;4.20;99.90
22153;DHT22;11242;50.536;12.688;2022-11-25T09:11:56;4.40;99.90
22153;DHT22;11242;50.536;12.688;2022-11-25T09:14:22;4.50;99.90
22153;DHT22;11242;50.536;12.688;2022-11-25T09:16:48;4.60;99.90
22153;DHT22;11242;50.536;12.688;2022-11-25T09:19:14;4.70;99.90
22153;DHT22;11242;50.536;12.688;2022-11-25T09:21:42;4.70;99.90
22153;DHT22;11242;50.536;12.688;2022-11-25T09:24:08;4.70;99.90
22153;DHT22;11242;50.536;12.688;2022-11-25T09:26:34;5.00;99.90
22153;DHT22;11242;50.536;12.688;2022-11-25T09:29:04;4.90;99.90
22153;DHT22;11242;50.536;12.688;2022-11-25T09:31:29;4.80;99.90
22153;DHT22;11242;50.536;12.688;2022-11-25T09:33:55;4.80;99.90
22153;DHT22;11242;50.536;12.688;2022-11-25T09:36:21;4.70;99.90
22153;DHT22;11242;50.536;12.688;2022-11-25T09:38:48;4.60;99.90
22153;DHT22;11242;50.536;12.688;2022-11-25T09:41:55;4.50;99.90
22153;DHT22;11242;50.536;12.688;2022-11-25T09:56:13;5.00;99.90
22153;DHT22;11242;50.536;12.688;2022-11-25T09:58:49;5.20;99.90
22153;DHT22;11242;50.536;12.688;2022-11-25T10:01:19;5.30;99.90
22153;DHT22;11242;50.536;12.688;2022-11-25T10:03:54;5.50;99.90
22153;DHT22;11242;50.536;12.688;2022-11-25T10:06:26;5.60;99.90
22153;DHT22;11242;50.536;12.688;2022-11-25T10:09:03;5.70;99.90
22153;DHT22;11242;50.536;12.688;2022-11-25T10:11:49;5.80;99.90
22153;DHT22;11242;50.536;12.688;2022-11-25T10:14:41;5.90;99.90
22153;DHT22;11242;50.536;12.688;2022-11-25T10:17:24;5.90;99.90
22153;DHT22;11242;50.536;12.688;2022-11-25T10:22:34;6.00;99.90
22153;DHT22;11242;50.536;12.688;2022-11-25T10:30:23;6.00;99.90
22153;DHT22;11242;50.536;12.688;2022-11-25T10:35:42;5.90;99.90
22153;DHT22;11242;50.536;12.688;2022-11-25T10:38:23;5.90;99.90
22153;DHT22;11242;50.536;12.688;2022-11-25T10:40:51;5.90;99.90
22153;DHT22;11242;50.536;12.688;2022-11-25T10:43:19;6.10;99.90
22153;DHT22;11242;50.536;12.688;2022-11-25T10:48:44;6.20;99.90
22153;DHT22;11242;50.536;12.688;2022-11-25T10:51:29;6.20;99.90
22153;DHT22;11242;50.536;12.688;2022-11-25T10:54:31;6.30;99.90
22153;DHT22;11242;50.536;12.688;2022-11-25T10:57:00;6.20;99.90
22153;DHT22;11242;50.536;12.688;2022-11-25T10:59:30;6.30;99.90
22153;DHT22;11242;50.536;12.688;2022-11-25T11:07:30;6.30;99.90
22153;DHT22;11242;50.536;12.688;2022-11-25T11:17:59;6.20;99.90
22153;DHT22;11242;50.536;12.688;2022-11-25T11:20:47;6.20;99.90
22153;DHT22;11242;50.536;12.688;2022-11-25T11:23:14;6.10;99.90
22153;DHT22;11242;50.536;12.688;2022-11-25T11:25:42;6.10;99.90
22153;DHT22;11242;50.536;12.688;2022-11-25T11:28:38;6.20;99.90
22153;DHT22;11242;50.536;12.688;2022-11-25T11:31:22;6.20;99.90
22153;DHT22;11242;50.536;12.688;2022-11-25T11:50:49;7.00;99.90
22153;DHT22;11242;50.536;12.688;2022-11-25T12:04:35;7.20;99.90
22153;DHT22;11242;50.536;12.688;2022-11-25T12:07:06;7.10;99.90
22153;DHT22;11242;50.536;12.688;2022-11-25T12:09:40;7.00;99.90
22153;DHT22;11242;50.536;12.688;2022-11-25T12:12:14;7.00;99.90
22153;DHT22;11242;50.536;12.688;2022-11-25T12:14:50;7.00;99.90
22153;DHT22;11242;50.536;12.688;2022-11-25T12:17:34;6.90;99.90
22153;DHT22;11242;50.536;12.688;2022-11-25T12:20:12;6.90;99.90
22153;DHT22;11242;50.536;12.688;2022-11-25T12:22:57;6.80;99.90
22153;DHT22;11242;50.536;12.688;2022-11-25T12:25:30;6.70;99.90
22153;DHT22;11242;50.536;12.688;2022-11-25T12:30:39;6.50;99.90
22153;DHT22;11242;50.536;12.688;2022-11-25T12:33:14;6.40;99.90
22153;DHT22;11242;50.536;12.688;2022-11-25T12:44:13;6.30;99.90
22153;DHT22;11242;50.536;12.688;2022-11-25T12:46:43;6.20;99.90
22153;DHT22;11242;50.536;12.688;2022-11-25T12:49:19;6.30;99.90
22153;DHT22;11242;50.536;12.688;2022-11-25T12:52:28;6.30;99.90
22153;DHT22;11242;50.536;12.688;2022-11-25T13:00:53;6.50;99.90
22153;DHT22;11242;50.536;12.688;2022-11-25T13:17:23;7.00;99.90
22153;DHT22;11242;50.536;12.688;2022-11-25T13:25:37;7.30;99.90
22153;DHT22;11242;50.536;12.688;2022-11-25T13:33:57;7.70;99.90
22153;DHT22;11242;50.536;12.688;2022-11-25T13:36:25;7.70;99.90
22153;DHT22;11242;50.536;12.688;2022-11-25T13:39:16;7.80;99.90
22153;DHT22;11242;50.536;12.688;2022-11-25T13:41:47;7.70;99.90
22153;DHT22;11242;50.536;12.688;2022-11-25T13:44:24;7.60;99.90
22153;DHT22;11242;50.536;12.688;2022-11-25T13:46:54;7.60;99.90
22153;DHT22;11242;50.536;12.688;2022-11-25T13:51:56;7.50;99.90
22153;DHT22;11242;50.536;12.688;2022-11-25T13:54:33;7.30;99.90
22153;DHT22;11242;50.536;12.688;2022-11-25T13:57:16;7.30;99.90
22153;DHT22;11242;50.536;12.688;2022-11-25T14:07:33;7.00;99.90
22153;DHT22;11242;50.536;12.688;2022-11-25T14:24:06;6.80;99.90
22153;DHT22;11242;50.536;12.688;2022-11-25T14:26:36;6.80;99.90
22153;DHT22;11242;50.536;12.688;2022-11-25T14:29:21;6.70;99.90
22153;DHT22;11242;50.536;12.688;2022-11-25T14:32:00;6.70;99.90
22153;DHT22;11242;50.536;12.688;2022-11-25T14:34:49;6.60;99.90
22153;DHT22;11242;50.536;12.688;2022-11-25T14:37:26;6.60;99.90
22153;DHT22;11242;50.536;12.688;2022-11-25T14:39:55;6.50;99.90
22153;DHT22;11242;50.536;12.688;2022-11-25T14:42:23;6.50;99.90
22153;DHT22;11242;50.536;12.688;2022-11-25T14:44:51;6.50;99.90
22153;DHT22;11242;50.536;12.688;2022-11-25T14:47:24;6.50;99.90
22153;DHT22;11242;50.536;12.688;2022-11-25T14:49:51;6.40;99.90
22153;DHT22;11242;50.536;12.688;2022-11-25T14:54:53;6.30;99.90
22153;DHT22;11242;50.536;12.688;2022-11-25T14:57:25;6.30;99.90
22153;DHT22;11242;50.536;12.688;2022-11-25T14:59:52;6.20;99.90
22153;DHT22;11242;50.536;12.688;2022-11-25T15:02:30;6.20;99.90
22153;DHT22;11242;50.536;12.688;2022-11-25T15:07:32;6.10;99.90
22153;DHT22;11242;50.536;12.688;2022-11-25T15:09:58;6.10;99.90
22153;DHT22;11242;50.536;12.688;2022-11-25T15:12:29;6.10;99.90
22153;DHT22;11242;50.536;12.688;2022-11-25T15:14:56;6.10;99.90
22153;DHT22;11242;50.536;12.688;2022-11-25T15:17:32;6.10;99.90
22153;DHT22;11242;50.536;12.688;2022-11-25T15:20:08;6.20;99.90
22153;DHT22;11242;50.536;12.688;2022-11-25T15:22:35;6.20;99.90
22153;DHT22;11242;50.536;12.688;2022-11-25T15:25:11;6.30;99.90
22153;DHT22;11242;50.536;12.688;2022-11-25T15:27:43;6.30;99.90
22153;DHT22;11242;50.536;12.688;2022-11-25T15:32:44;6.40;99.90
22153;DHT22;11242;50.536;12.688;2022-11-25T15:35:19;6.40;99.90
22153;DHT22;11242;50.536;12.688;2022-11-25T15:37:46;6.30;99.90
22153;DHT22;11242;50.536;12.688;2022-11-25T15:40:32;6.30;99.90
22153;DHT22;11242;50.536;12.688;2022-11-25T15:43:03;6.20;99.90
22153;DHT22;11242;50.536;12.688;2022-11-25T15:45:44;6.20;99.90
22153;DHT22;11242;50.536;12.688;2022-11-25T15:48:23;6.20;99.90
22153;DHT22;11242;50.536;12.688;2022-11-25T15:50:50;6.10;99.90
22153;DHT22;11242;50.536;12.688;2022-11-25T15:53:23;6.10;99.90
22153;DHT22;11242;50.536;12.688;2022-11-25T15:55:51;6.00;99.90
22153;DHT22;11242;50.536;12.688;2022-11-25T15:58:22;6.00;99.90
22153;DHT22;11242;50.536;12.688;2022-11-25T16:03:31;5.90;99.90
22153;DHT22;11242;50.536;12.688;2022-11-25T16:05:59;5.90;99.90
22153;DHT22;11242;50.536;12.688;2022-11-25T16:08:37;5.80;99.90
22153;DHT22;11242;50.536;12.688;2022-11-25T16:11:14;5.70;99.90
22153;DHT22;11242;50.536;12.688;2022-11-25T16:13:41;5.60;99.90
22153;DHT22;11242;50.536;12.688;2022-11-25T16:16:09;5.60;99.90
22153;DHT22;11242;50.536;12.688;2022-11-25T16:18:41;5.50;99.90
22153;DHT22;11242;50.536;12.688;2022-11-25T16:21:21;5.50;99.90
22153;DHT22;11242;50.536;12.688;2022-11-25T16:23:51;5.40;99.90
22153;DHT22;11242;50.536;12.688;2022-11-25T16:26:31;5.40;99.90
22153;DHT22;11242;50.536;12.688;2022-11-25T16:28:59;5.40;99.90
22153;DHT22;11242;50.536;12.688;2022-11-25T16:31:26;5.30;99.90
22153;DHT22;11242;50.536;12.688;2022-11-25T16:34:07;5.30;99.90
22153;DHT22;11242;50.536;12.688;2022-11-25T16:36:36;5.30;99.90
22153;DHT22;11242;50.536;12.688;2022-11-25T16:39:01;5.30;99.90
22153;DHT22;11242;50.536;12.688;2022-11-25T16:41:27;5.30;99.90
22153;DHT22;11242;50.536;12.688;2022-11-25T16:43:53;5.30;99.90
22153;DHT22;11242;50.536;12.688;2022-11-25T16:46:19;5.30;99.90
22153;DHT22;11242;50.536;12.688;2022-11-25T16:48:45;5.30;99.90
22153;DHT22;11242;50.536;12.688;2022-11-25T16:51:16;5.30;99.90
22153;DHT22;11242;50.536;12.688;2022-11-25T16:53:43;5.30;99.90
22153;DHT22;11242;50.536;12.688;2022-11-25T16:56:17;5.30;99.90
22153;DHT22;11242;50.536;12.688;2022-11-25T16:58:44;5.30;99.90
22153;DHT22;11242;50.536;12.688;2022-11-25T17:01:13;5.30;99.90
22153;DHT22;11242;50.536;12.688;2022-11-25T17:03:39;5.30;99.90
22153;DHT22;11242;50.536;12.688;2022-11-25T17:06:32;5.30;99.90
22153;DHT22;11242;50.536;12.688;2022-11-25T17:08:57;5.30;99.90
22153;DHT22;11242;50.536;12.688;2022-11-25T17:11:28;5.20;99.90
22153;DHT22;11242;50.536;12.688;2022-11-25T17:13:57;5.20;99.90
22153;DHT22;11242;50.536;12.688;2022-11-25T17:16:25;5.20;99.90
22153;DHT22;11242;50.536;12.688;2022-11-25T17:18:53;5.20;99.90
22153;DHT22;11242;50.536;12.688;2022-11-25T17:21:20;5.20;99.90
22153;DHT22;11242;50.536;12.688;2022-11-25T17:23:51;5.20;99.90
22153;DHT22;11242;50.536;12.688;2022-11-25T17:26:19;5.20;99.90
22153;DHT22;11242;50.536;12.688;2022-11-25T17:28:51;5.20;99.90
22153;DHT22;11242;50.536;12.688;2022-11-25T17:31:17;5.20;99.90
22153;DHT22;11242;50.536;12.688;2022-11-25T17:33:44;5.20;99.90
22153;DHT22;11242;50.536;12.688;2022-11-25T17:36:10;5.20;99.90
22153;DHT22;11242;50.536;12.688;2022-11-25T17:38:36;5.20;99.90
22153;DHT22;11242;50.536;12.688;2022-11-25T17:41:10;5.10;99.90
22153;DHT22;11242;50.536;12.688;2022-11-25T17:43:37;5.10;99.90
22153;DHT22;11242;50.536;12.688;2022-11-25T17:46:03;5.20;99.90
22153;DHT22;11242;50.536;12.688;2022-11-25T17:48:29;5.20;99.90
22153;DHT22;11242;50.536;12.688;2022-11-25T17:50:54;5.10;99.90
22153;DHT22;11242;50.536;12.688;2022-11-25T17:53:20;5.10;99.90
22153;DHT22;11242;50.536;12.688;2022-11-25T17:55:45;5.10;99.90
22153;DHT22;11242;50.536;12.688;2022-11-25T17:58:11;5.10;99.90
22153;DHT22;11242;50.536;12.688;2022-11-25T18:00:41;5.10;99.90
22153;DHT22;11242;50.536;12.688;2022-11-25T18:03:12;5.10;99.90
22153;DHT22;11242;50.536;12.688;2022-11-25T18:05:39;5.10;99.90
22153;DHT22;11242;50.536;12.688;2022-11-25T18:08:04;5.10;99.90
22153;DHT22;11242;50.536;12.688;2022-11-25T18:10:30;5.20;99.90
22153;DHT22;11242;50.536;12.688;2022-11-25T18:12:56;5.10;99.90